Princess Juliana International, Saint Maartin

1:16 AM AST on August 31, 2014 (GMT -0400)
Princess Juliana International | Change Station
CLOSE
Current Station
Airport
Location: Juliana Airport,
Elevation: 13 ft
Nearby Weather Stations

Elev 13 ft 18.04 °N, 63.11 °W | Updated 16 minutes ago

Scattered Clouds
Scattered Clouds
82 °F
Feels Like 88 °F
N
12
Wind Variable Wind from East

Today
High -- | Low -- °F
--% Chance of Precip.
Yesterday
High -- | Low -- °F
Precip. -- in
5:57 AM 6:27 PM
Waxing Crescent, 27% visible
Pressure 30.04 in
Visibility 6.2 miles
Clouds Scattered Clouds 2000 ft
Heat Index 88 °F
Dew Point 73 °F
Humidity 74%
Rainfall 0.00 in
Snow Depth Not available.
UV 0 out of 12
Pollen Not available.
Air Quality Not available.
Flu Activity Not available.
METAR TNCM 310500Z 09010KT 9999 SCT020 28/23 Q1017 A3003

More Conditions Fewer Conditions

Pressure 30.04 in
Visibility 6.2 miles
Clouds Scattered Clouds 2000 ft
Heat Index 88 °F
Dew Point 73 °F
Humidity 74%
Rainfall 0.00 in
Snow Depth Not available.
UV 0 out of 12
Pollen Not available.
Air Quality Not available.
Flu Activity Not available.
METAR TNCM 310500Z 09010KT 9999 SCT020 28/23 Q1017 A3003

More Conditions Fewer Conditions

10-Day Weather Forecast

Almanac

Astronomy

Aug. 31, 2014 Rise Set
Actual Time 5:57 AM AST 6:27 PM AST
Civil Twilight 5:35 AM AST 6:49 PM AST
Nautical Twilight 5:10 AM AST 7:15 PM AST
Astronomical Twilight 4:43 AM AST 7:41 PM AST
Moon 10:49 AM AST 10:31 PM AST
Length of Visible Light 13h 13m
Length of Day
12h 29m
Tomorrow will be 0m 58s shorter.
Waxing Crescent, 27% of the Moon is Illuminated
Today
Waxing Crescent
Sep 2
First Quarter
Sep 8
Full
Sep 15
Last Quarter
Sep 24
New

Yesterday's Extremes

Country Highs Country Lows

Community

WunderPhotos

Upload Photos

1,748,786 photos uploaded!

Nearby

Snow Depth

Not available.

Earthquake Activity

City Distance Mag. Time & Date
No recent earthquake activity has been reported nearby.
Minimum magnitude displayed is 2.5.

Coastal Water Temperatures

Place Temperature
No Stations Reporting

Nearby Weather Stations